sensor_id;sensor_type;location;lat;lon;timestamp;P1;durP1;ratioP1;P2;durP2;ratioP2
13435;SDS011;6790;49.520;8.504;2022-11-20T00:01:13;26.67;;;10.70;;
13435;SDS011;6790;49.520;8.504;2022-11-20T00:03:45;19.00;;;8.70;;
13435;SDS011;6790;49.520;8.504;2022-11-20T00:06:12;27.17;;;11.30;;
13435;SDS011;6790;49.520;8.504;2022-11-20T00:08:41;19.10;;;9.30;;
13435;SDS011;6790;49.520;8.504;2022-11-20T00:11:07;23.63;;;10.27;;
13435;SDS011;6790;49.520;8.504;2022-11-20T00:13:39;17.63;;;8.83;;
13435;SDS011;6790;49.520;8.504;2022-11-20T00:16:05;18.90;;;9.50;;
13435;SDS011;6790;49.520;8.504;2022-11-20T00:18:34;19.73;;;10.23;;
13435;SDS011;6790;49.520;8.504;2022-11-20T00:21:01;19.10;;;10.63;;
13435;SDS011;6790;49.520;8.504;2022-11-20T00:23:33;22.10;;;10.57;;
13435;SDS011;6790;49.520;8.504;2022-11-20T00:26:17;18.73;;;9.27;;
13435;SDS011;6790;49.520;8.504;2022-11-20T00:28:49;12.97;;;8.00;;
13435;SDS011;6790;49.520;8.504;2022-11-20T00:31:22;13.67;;;7.37;;
13435;SDS011;6790;49.520;8.504;2022-11-20T00:33:49;19.83;;;8.50;;
13435;SDS011;6790;49.520;8.504;2022-11-20T00:36:16;16.97;;;9.17;;
13435;SDS011;6790;49.520;8.504;2022-11-20T00:38:53;13.77;;;7.37;;
13435;SDS011;6790;49.520;8.504;2022-11-20T00:41:22;17.67;;;7.93;;
13435;SDS011;6790;49.520;8.504;2022-11-20T00:43:51;16.10;;;10.20;;
13435;SDS011;6790;49.520;8.504;2022-11-20T00:46:19;18.50;;;8.60;;
13435;SDS011;6790;49.520;8.504;2022-11-20T00:48:47;16.53;;;7.83;;
13435;SDS011;6790;49.520;8.504;2022-11-20T00:51:14;16.23;;;7.67;;
13435;SDS011;6790;49.520;8.504;2022-11-20T00:53:44;13.20;;;7.87;;
13435;SDS011;6790;49.520;8.504;2022-11-20T00:56:11;15.67;;;7.53;;
13435;SDS011;6790;49.520;8.504;2022-11-20T00:58:42;20.60;;;9.70;;
13435;SDS011;6790;49.520;8.504;2022-11-20T01:01:11;14.47;;;8.57;;
13435;SDS011;6790;49.520;8.504;2022-11-20T01:03:46;14.53;;;8.50;;
13435;SDS011;6790;49.520;8.504;2022-11-20T01:08:57;17.73;;;8.33;;
13435;SDS011;6790;49.520;8.504;2022-11-20T01:11:27;15.23;;;6.97;;
13435;SDS011;6790;49.520;8.504;2022-11-20T01:13:57;14.97;;;6.77;;
13435;SDS011;6790;49.520;8.504;2022-11-20T01:16:26;11.60;;;6.53;;
13435;SDS011;6790;49.520;8.504;2022-11-20T01:18:57;13.27;;;7.50;;
13435;SDS011;6790;49.520;8.504;2022-11-20T01:21:35;12.63;;;6.20;;
13435;SDS011;6790;49.520;8.504;2022-11-20T01:24:03;11.77;;;6.80;;
13435;SDS011;6790;49.520;8.504;2022-11-20T01:26:33;16.57;;;8.80;;
13435;SDS011;6790;49.520;8.504;2022-11-20T01:29:02;28.50;;;7.23;;
13435;SDS011;6790;49.520;8.504;2022-11-20T01:31:32;14.57;;;6.93;;
13435;SDS011;6790;49.520;8.504;2022-11-20T01:34:01;11.83;;;7.40;;
13435;SDS011;6790;49.520;8.504;2022-11-20T01:36:33;15.27;;;7.87;;
13435;SDS011;6790;49.520;8.504;2022-11-20T01:39:03;20.20;;;9.33;;
13435;SDS011;6790;49.520;8.504;2022-11-20T01:41:33;17.20;;;7.93;;
13435;SDS011;6790;49.520;8.504;2022-11-20T01:44:20;12.67;;;6.67;;
13435;SDS011;6790;49.520;8.504;2022-11-20T01:47:05;15.17;;;8.17;;
13435;SDS011;6790;49.520;8.504;2022-11-20T01:49:40;14.87;;;7.77;;
13435;SDS011;6790;49.520;8.504;2022-11-20T01:52:13;14.33;;;7.33;;
13435;SDS011;6790;49.520;8.504;2022-11-20T01:54:50;16.00;;;8.37;;
13435;SDS011;6790;49.520;8.504;2022-11-20T01:57:21;17.37;;;9.30;;
13435;SDS011;6790;49.520;8.504;2022-11-20T01:59:51;14.30;;;7.50;;
13435;SDS011;6790;49.520;8.504;2022-11-20T02:02:23;13.23;;;6.30;;
13435;SDS011;6790;49.520;8.504;2022-11-20T02:04:49;13.33;;;7.23;;
13435;SDS011;6790;49.520;8.504;2022-11-20T02:07:19;10.07;;;6.33;;
13435;SDS011;6790;49.520;8.504;2022-11-20T02:09:46;10.27;;;6.37;;
13435;SDS011;6790;49.520;8.504;2022-11-20T02:12:12;17.10;;;8.63;;
13435;SDS011;6790;49.520;8.504;2022-11-20T02:14:57;16.07;;;7.23;;
13435;SDS011;6790;49.520;8.504;2022-11-20T02:17:23;17.40;;;8.73;;
13435;SDS011;6790;49.520;8.504;2022-11-20T02:19:50;21.27;;;8.73;;
13435;SDS011;6790;49.520;8.504;2022-11-20T02:22:21;12.07;;;7.43;;
13435;SDS011;6790;49.520;8.504;2022-11-20T02:24:56;10.57;;;6.10;;
13435;SDS011;6790;49.520;8.504;2022-11-20T02:27:24;14.80;;;8.27;;
13435;SDS011;6790;49.520;8.504;2022-11-20T02:29:52;17.47;;;8.17;;
13435;SDS011;6790;49.520;8.504;2022-11-20T02:32:23;13.70;;;7.97;;
13435;SDS011;6790;49.520;8.504;2022-11-20T02:34:58;14.20;;;7.17;;
13435;SDS011;6790;49.520;8.504;2022-11-20T02:37:43;18.20;;;7.07;;
13435;SDS011;6790;49.520;8.504;2022-11-20T02:40:10;19.43;;;7.83;;
13435;SDS011;6790;49.520;8.504;2022-11-20T02:42:36;20.43;;;9.50;;
13435;SDS011;6790;49.520;8.504;2022-11-20T02:45:03;15.13;;;7.60;;
13435;SDS011;6790;49.520;8.504;2022-11-20T02:47:30;16.97;;;6.90;;
13435;SDS011;6790;49.520;8.504;2022-11-20T02:49:56;16.67;;;9.47;;
13435;SDS011;6790;49.520;8.504;2022-11-20T02:52:22;15.57;;;7.83;;
13435;SDS011;6790;49.520;8.504;2022-11-20T02:54:48;15.30;;;7.60;;
13435;SDS011;6790;49.520;8.504;2022-11-20T02:57:14;15.67;;;8.23;;
13435;SDS011;6790;49.520;8.504;2022-11-20T02:59:39;13.33;;;8.27;;
13435;SDS011;6790;49.520;8.504;2022-11-20T03:02:05;12.70;;;7.33;;
13435;SDS011;6790;49.520;8.504;2022-11-20T03:04:31;15.90;;;7.80;;
13435;SDS011;6790;49.520;8.504;2022-11-20T03:06:56;14.67;;;7.33;;
13435;SDS011;6790;49.520;8.504;2022-11-20T03:09:22;14.10;;;7.13;;
13435;SDS011;6790;49.520;8.504;2022-11-20T03:11:48;13.73;;;7.00;;
13435;SDS011;6790;49.520;8.504;2022-11-20T03:14:13;11.63;;;6.43;;
13435;SDS011;6790;49.520;8.504;2022-11-20T03:16:39;15.57;;;8.63;;
13435;SDS011;6790;49.520;8.504;2022-11-20T03:19:05;12.53;;;7.50;;
13435;SDS011;6790;49.520;8.504;2022-11-20T03:21:34;14.47;;;6.63;;
13435;SDS011;6790;49.520;8.504;2022-11-20T03:24:00;16.40;;;7.93;;
13435;SDS011;6790;49.520;8.504;2022-11-20T03:26:27;16.50;;;6.63;;
13435;SDS011;6790;49.520;8.504;2022-11-20T03:28:54;15.07;;;7.63;;
13435;SDS011;6790;49.520;8.504;2022-11-20T03:31:23;13.77;;;6.40;;
13435;SDS011;6790;49.520;8.504;2022-11-20T03:33:55;14.20;;;8.00;;
13435;SDS011;6790;49.520;8.504;2022-11-20T03:36:21;22.13;;;9.17;;
13435;SDS011;6790;49.520;8.504;2022-11-20T03:38:47;14.30;;;7.67;;
13435;SDS011;6790;49.520;8.504;2022-11-20T03:41:18;12.57;;;6.07;;
13435;SDS011;6790;49.520;8.504;2022-11-20T03:43:47;13.50;;;6.97;;
13435;SDS011;6790;49.520;8.504;2022-11-20T03:46:17;16.37;;;7.97;;
13435;SDS011;6790;49.520;8.504;2022-11-20T03:48:42;14.50;;;6.93;;
13435;SDS011;6790;49.520;8.504;2022-11-20T03:51:09;14.97;;;6.50;;
13435;SDS011;6790;49.520;8.504;2022-11-20T03:53:56;11.17;;;6.27;;
13435;SDS011;6790;49.520;8.504;2022-11-20T03:56:27;9.10;;;6.07;;
13435;SDS011;6790;49.520;8.504;2022-11-20T03:58:55;12.23;;;6.50;;
13435;SDS011;6790;49.520;8.504;2022-11-20T04:01:23;9.77;;;5.90;;
13435;SDS011;6790;49.520;8.504;2022-11-20T04:04:00;13.03;;;6.97;;
13435;SDS011;6790;49.520;8.504;2022-11-20T04:06:27;14.90;;;6.83;;
13435;SDS011;6790;49.520;8.504;2022-11-20T04:09:01;15.50;;;7.80;;
13435;SDS011;6790;49.520;8.504;2022-11-20T04:11:29;13.53;;;7.00;;
13435;SDS011;6790;49.520;8.504;2022-11-20T04:13:58;15.37;;;6.80;;
13435;SDS011;6790;49.520;8.504;2022-11-20T04:16:28;11.13;;;6.20;;
13435;SDS011;6790;49.520;8.504;2022-11-20T04:18:57;11.77;;;6.43;;
13435;SDS011;6790;49.520;8.504;2022-11-20T04:21:25;18.13;;;7.40;;
13435;SDS011;6790;49.520;8.504;2022-11-20T04:23:51;14.60;;;8.10;;
13435;SDS011;6790;49.520;8.504;2022-11-20T04:26:18;17.93;;;8.03;;
13435;SDS011;6790;49.520;8.504;2022-11-20T04:28:45;12.77;;;7.47;;
13435;SDS011;6790;49.520;8.504;2022-11-20T04:31:18;14.87;;;7.03;;
13435;SDS011;6790;49.520;8.504;2022-11-20T04:33:46;14.73;;;6.90;;
13435;SDS011;6790;49.520;8.504;2022-11-20T04:36:12;13.60;;;6.93;;
13435;SDS011;6790;49.520;8.504;2022-11-20T04:38:44;10.97;;;6.30;;
13435;SDS011;6790;49.520;8.504;2022-11-20T04:41:12;10.70;;;5.67;;
13435;SDS011;6790;49.520;8.504;2022-11-20T04:43:41;12.83;;;6.93;;
13435;SDS011;6790;49.520;8.504;2022-11-20T04:46:14;13.37;;;7.27;;
13435;SDS011;6790;49.520;8.504;2022-11-20T04:48:41;21.73;;;8.23;;
13435;SDS011;6790;49.520;8.504;2022-11-20T04:51:07;12.97;;;6.00;;
13435;SDS011;6790;49.520;8.504;2022-11-20T04:53:33;13.30;;;6.57;;
13435;SDS011;6790;49.520;8.504;2022-11-20T04:56:03;14.33;;;6.43;;
13435;SDS011;6790;49.520;8.504;2022-11-20T04:58:31;16.43;;;8.63;;
13435;SDS011;6790;49.520;8.504;2022-11-20T05:01:30;11.60;;;6.73;;
13435;SDS011;6790;49.520;8.504;2022-11-20T05:03:49;12.03;;;7.03;;
13435;SDS011;6790;49.520;8.504;2022-11-20T05:06:17;14.43;;;7.10;;
13435;SDS011;6790;49.520;8.504;2022-11-20T05:08:45;18.47;;;7.80;;
13435;SDS011;6790;49.520;8.504;2022-11-20T05:11:18;14.03;;;7.73;;
13435;SDS011;6790;49.520;8.504;2022-11-20T05:13:45;13.60;;;7.03;;
13435;SDS011;6790;49.520;8.504;2022-11-20T05:16:14;12.27;;;6.07;;
13435;SDS011;6790;49.520;8.504;2022-11-20T05:18:42;14.90;;;6.50;;
13435;SDS011;6790;49.520;8.504;2022-11-20T05:21:09;12.47;;;7.47;;
13435;SDS011;6790;49.520;8.504;2022-11-20T05:23:35;27.47;;;11.20;;
13435;SDS011;6790;49.520;8.504;2022-11-20T05:26:01;30.63;;;14.50;;
13435;SDS011;6790;49.520;8.504;2022-11-20T05:28:28;16.70;;;6.73;;
13435;SDS011;6790;49.520;8.504;2022-11-20T05:30:55;15.90;;;8.20;;
13435;SDS011;6790;49.520;8.504;2022-11-20T05:33:21;15.53;;;7.40;;
13435;SDS011;6790;49.520;8.504;2022-11-20T05:35:47;16.33;;;6.43;;
13435;SDS011;6790;49.520;8.504;2022-11-20T05:38:13;12.70;;;6.77;;
13435;SDS011;6790;49.520;8.504;2022-11-20T05:40:39;18.30;;;8.47;;
13435;SDS011;6790;49.520;8.504;2022-11-20T05:43:05;14.17;;;6.97;;
13435;SDS011;6790;49.520;8.504;2022-11-20T05:45:30;16.13;;;6.23;;
13435;SDS011;6790;49.520;8.504;2022-11-20T05:47:59;13.40;;;6.40;;
13435;SDS011;6790;49.520;8.504;2022-11-20T05:50:26;15.37;;;7.43;;
13435;SDS011;6790;49.520;8.504;2022-11-20T05:52:53;15.50;;;6.63;;
13435;SDS011;6790;49.520;8.504;2022-11-20T05:55:18;17.63;;;7.63;;
13435;SDS011;6790;49.520;8.504;2022-11-20T05:57:44;14.23;;;6.47;;
13435;SDS011;6790;49.520;8.504;2022-11-20T06:00:10;15.03;;;5.70;;
13435;SDS011;6790;49.520;8.504;2022-11-20T06:02:36;11.13;;;5.93;;
13435;SDS011;6790;49.520;8.504;2022-11-20T06:05:02;19.90;;;7.83;;
13435;SDS011;6790;49.520;8.504;2022-11-20T06:07:28;17.17;;;7.87;;
13435;SDS011;6790;49.520;8.504;2022-11-20T06:09:53;17.13;;;8.10;;
13435;SDS011;6790;49.520;8.504;2022-11-20T06:12:19;13.37;;;6.93;;
13435;SDS011;6790;49.520;8.504;2022-11-20T06:14:44;15.67;;;7.30;;
13435;SDS011;6790;49.520;8.504;2022-11-20T06:17:10;16.57;;;9.40;;
13435;SDS011;6790;49.520;8.504;2022-11-20T06:19:36;13.17;;;7.57;;
13435;SDS011;6790;49.520;8.504;2022-11-20T06:22:01;13.90;;;7.07;;
13435;SDS011;6790;49.520;8.504;2022-11-20T06:24:27;15.03;;;6.50;;
13435;SDS011;6790;49.520;8.504;2022-11-20T06:26:53;18.10;;;7.47;;
13435;SDS011;6790;49.520;8.504;2022-11-20T06:29:18;11.93;;;7.30;;
13435;SDS011;6790;49.520;8.504;2022-11-20T06:31:44;13.03;;;6.30;;
13435;SDS011;6790;49.520;8.504;2022-11-20T06:34:10;28.73;;;8.73;;
13435;SDS011;6790;49.520;8.504;2022-11-20T06:36:35;18.77;;;9.27;;
13435;SDS011;6790;49.520;8.504;2022-11-20T06:39:01;16.73;;;7.30;;
13435;SDS011;6790;49.520;8.504;2022-11-20T06:41:27;20.40;;;9.20;;
13435;SDS011;6790;49.520;8.504;2022-11-20T06:43:53;19.17;;;8.27;;
13435;SDS011;6790;49.520;8.504;2022-11-20T06:46:19;9.87;;;6.10;;
13435;SDS011;6790;49.520;8.504;2022-11-20T06:48:46;12.17;;;6.70;;
13435;SDS011;6790;49.520;8.504;2022-11-20T06:51:13;14.50;;;6.30;;
13435;SDS011;6790;49.520;8.504;2022-11-20T06:53:38;15.27;;;7.57;;
13435;SDS011;6790;49.520;8.504;2022-11-20T06:56:04;14.47;;;7.33;;
13435;SDS011;6790;49.520;8.504;2022-11-20T06:58:32;16.47;;;7.57;;
13435;SDS011;6790;49.520;8.504;2022-11-20T07:01:01;17.07;;;8.47;;
13435;SDS011;6790;49.520;8.504;2022-11-20T07:03:33;16.93;;;8.43;;
13435;SDS011;6790;49.520;8.504;2022-11-20T07:06:00;16.50;;;7.70;;
13435;SDS011;6790;49.520;8.504;2022-11-20T07:08:26;17.43;;;8.47;;
13435;SDS011;6790;49.520;8.504;2022-11-20T07:10:52;18.13;;;7.80;;
13435;SDS011;6790;49.520;8.504;2022-11-20T07:13:24;17.80;;;7.70;;
13435;SDS011;6790;49.520;8.504;2022-11-20T07:15:50;23.60;;;8.80;;
13435;SDS011;6790;49.520;8.504;2022-11-20T07:18:16;25.20;;;8.10;;
13435;SDS011;6790;49.520;8.504;2022-11-20T07:20:42;12.73;;;6.73;;
13435;SDS011;6790;49.520;8.504;2022-11-20T07:23:07;17.10;;;6.73;;
13435;SDS011;6790;49.520;8.504;2022-11-20T07:25:33;12.23;;;6.77;;
13435;SDS011;6790;49.520;8.504;2022-11-20T07:27:59;18.57;;;7.43;;
13435;SDS011;6790;49.520;8.504;2022-11-20T07:30:28;19.30;;;8.17;;
13435;SDS011;6790;49.520;8.504;2022-11-20T07:32:55;19.67;;;8.70;;
13435;SDS011;6790;49.520;8.504;2022-11-20T07:35:22;22.20;;;7.67;;
13435;SDS011;6790;49.520;8.504;2022-11-20T07:37:49;20.70;;;8.87;;
13435;SDS011;6790;49.520;8.504;2022-11-20T07:40:15;22.33;;;7.83;;
13435;SDS011;6790;49.520;8.504;2022-11-20T07:42:52;13.30;;;7.57;;
13435;SDS011;6790;49.520;8.504;2022-11-20T07:45:20;22.63;;;8.83;;
13435;SDS011;6790;49.520;8.504;2022-11-20T07:47:48;22.30;;;10.60;;
13435;SDS011;6790;49.520;8.504;2022-11-20T07:50:15;16.77;;;8.33;;
13435;SDS011;6790;49.520;8.504;2022-11-20T07:52:41;15.80;;;7.63;;
13435;SDS011;6790;49.520;8.504;2022-11-20T07:55:08;14.20;;;7.77;;
13435;SDS011;6790;49.520;8.504;2022-11-20T07:57:35;33.23;;;15.80;;
13435;SDS011;6790;49.520;8.504;2022-11-20T08:00:00;16.97;;;8.97;;
13435;SDS011;6790;49.520;8.504;2022-11-20T08:02:27;15.83;;;7.67;;
13435;SDS011;6790;49.520;8.504;2022-11-20T08:04:54;11.27;;;7.30;;
13435;SDS011;6790;49.520;8.504;2022-11-20T08:07:19;18.03;;;8.87;;
13435;SDS011;6790;49.520;8.504;2022-11-20T08:09:45;28.90;;;11.30;;
13435;SDS011;6790;49.520;8.504;2022-11-20T08:12:18;20.30;;;9.27;;
13435;SDS011;6790;49.520;8.504;2022-11-20T08:15:04;18.23;;;8.37;;
13435;SDS011;6790;49.520;8.504;2022-11-20T08:17:31;18.90;;;8.93;;
13435;SDS011;6790;49.520;8.504;2022-11-20T08:19:57;14.30;;;7.50;;
13435;SDS011;6790;49.520;8.504;2022-11-20T08:22:22;20.30;;;9.27;;
13435;SDS011;6790;49.520;8.504;2022-11-20T08:24:49;19.73;;;9.67;;
13435;SDS011;6790;49.520;8.504;2022-11-20T08:27:15;24.70;;;13.00;;
13435;SDS011;6790;49.520;8.504;2022-11-20T08:29:41;25.33;;;13.07;;
13435;SDS011;6790;49.520;8.504;2022-11-20T08:32:06;29.73;;;14.73;;
13435;SDS011;6790;49.520;8.504;2022-11-20T08:34:32;22.40;;;10.23;;
13435;SDS011;6790;49.520;8.504;2022-11-20T08:36:58;16.13;;;8.27;;
13435;SDS011;6790;49.520;8.504;2022-11-20T08:39:23;26.07;;;12.27;;
13435;SDS011;6790;49.520;8.504;2022-11-20T08:41:49;32.17;;;11.43;;
13435;SDS011;6790;49.520;8.504;2022-11-20T08:44:15;20.40;;;9.77;;
13435;SDS011;6790;49.520;8.504;2022-11-20T08:46:41;27.03;;;11.93;;
13435;SDS011;6790;49.520;8.504;2022-11-20T08:49:09;23.83;;;10.93;;
13435;SDS011;6790;49.520;8.504;2022-11-20T08:51:37;28.37;;;11.60;;
13435;SDS011;6790;49.520;8.504;2022-11-20T08:54:03;33.07;;;11.17;;
13435;SDS011;6790;49.520;8.504;2022-11-20T08:56:30;25.37;;;11.07;;
13435;SDS011;6790;49.520;8.504;2022-11-20T08:58:56;26.47;;;10.83;;
13435;SDS011;6790;49.520;8.504;2022-11-20T09:01:24;27.03;;;9.90;;
13435;SDS011;6790;49.520;8.504;2022-11-20T09:03:50;22.40;;;10.53;;
13435;SDS011;6790;49.520;8.504;2022-11-20T09:06:15;36.53;;;13.47;;
13435;SDS011;6790;49.520;8.504;2022-11-20T09:08:42;31.70;;;10.70;;
13435;SDS011;6790;49.520;8.504;2022-11-20T09:11:07;27.13;;;12.10;;
13435;SDS011;6790;49.520;8.504;2022-11-20T09:13:34;42.53;;;14.30;;
13435;SDS011;6790;49.520;8.504;2022-11-20T09:16:02;26.30;;;11.10;;
13435;SDS011;6790;49.520;8.504;2022-11-20T09:18:33;29.43;;;11.00;;
13435;SDS011;6790;49.520;8.504;2022-11-20T09:21:09;37.67;;;14.17;;
13435;SDS011;6790;49.520;8.504;2022-11-20T09:23:37;34.20;;;11.70;;
13435;SDS011;6790;49.520;8.504;2022-11-20T09:26:05;33.37;;;13.60;;
13435;SDS011;6790;49.520;8.504;2022-11-20T09:28:34;30.53;;;11.70;;
13435;SDS011;6790;49.520;8.504;2022-11-20T09:31:00;40.83;;;18.07;;
13435;SDS011;6790;49.520;8.504;2022-11-20T09:33:29;49.27;;;14.23;;
13435;SDS011;6790;49.520;8.504;2022-11-20T09:35:55;45.77;;;12.77;;
13435;SDS011;6790;49.520;8.504;2022-11-20T09:38:21;33.70;;;11.43;;
13435;SDS011;6790;49.520;8.504;2022-11-20T09:40:52;27.87;;;10.90;;
13435;SDS011;6790;49.520;8.504;2022-11-20T09:46:29;33.20;;;11.23;;
13435;SDS011;6790;49.520;8.504;2022-11-20T09:55:09;36.20;;;14.23;;
13435;SDS011;6790;49.520;8.504;2022-11-20T09:57:37;41.20;;;15.70;;
13435;SDS011;6790;49.520;8.504;2022-11-20T10:00:09;36.13;;;14.00;;
13435;SDS011;6790;49.520;8.504;2022-11-20T10:05:29;32.83;;;12.30;;
13435;SDS011;6790;49.520;8.504;2022-11-20T10:08:08;30.30;;;13.53;;
13435;SDS011;6790;49.520;8.504;2022-11-20T10:10:54;46.63;;;14.37;;
13435;SDS011;6790;49.520;8.504;2022-11-20T10:13:52;41.87;;;14.53;;
13435;SDS011;6790;49.520;8.504;2022-11-20T10:22:54;32.53;;;12.50;;
13435;SDS011;6790;49.520;8.504;2022-11-20T10:25:55;42.50;;;13.70;;
13435;SDS011;6790;49.520;8.504;2022-11-20T10:28:52;31.80;;;11.07;;
13435;SDS011;6790;49.520;8.504;2022-11-20T10:31:43;28.10;;;12.03;;
13435;SDS011;6790;49.520;8.504;2022-11-20T10:34:25;33.93;;;12.27;;
13435;SDS011;6790;49.520;8.504;2022-11-20T10:37:00;29.50;;;11.33;;
13435;SDS011;6790;49.520;8.504;2022-11-20T10:39:44;26.87;;;11.03;;
13435;SDS011;6790;49.520;8.504;2022-11-20T10:42:35;35.93;;;13.97;;
13435;SDS011;6790;49.520;8.504;2022-11-20T10:45:13;31.80;;;12.70;;
13435;SDS011;6790;49.520;8.504;2022-11-20T10:47:50;30.90;;;12.20;;
13435;SDS011;6790;49.520;8.504;2022-11-20T10:50:20;34.90;;;12.87;;
13435;SDS011;6790;49.520;8.504;2022-11-20T10:53:05;29.63;;;11.87;;
13435;SDS011;6790;49.520;8.504;2022-11-20T10:55:56;28.47;;;10.60;;
13435;SDS011;6790;49.520;8.504;2022-11-20T11:01:18;34.70;;;11.13;;
13435;SDS011;6790;49.520;8.504;2022-11-20T11:03:49;33.53;;;11.23;;
13435;SDS011;6790;49.520;8.504;2022-11-20T11:06:36;40.17;;;13.47;;
13435;SDS011;6790;49.520;8.504;2022-11-20T11:09:10;24.67;;;10.50;;
13435;SDS011;6790;49.520;8.504;2022-11-20T11:11:45;29.07;;;11.40;;
13435;SDS011;6790;49.520;8.504;2022-11-20T11:14:12;31.30;;;12.10;;
13435;SDS011;6790;49.520;8.504;2022-11-20T11:16:50;36.93;;;13.33;;
13435;SDS011;6790;49.520;8.504;2022-11-20T11:19:18;36.30;;;12.23;;
13435;SDS011;6790;49.520;8.504;2022-11-20T11:21:46;32.80;;;13.07;;
13435;SDS011;6790;49.520;8.504;2022-11-20T11:24:24;39.33;;;13.47;;
13435;SDS011;6790;49.520;8.504;2022-11-20T11:26:55;47.70;;;16.10;;
13435;SDS011;6790;49.520;8.504;2022-11-20T11:29:31;29.63;;;13.00;;
13435;SDS011;6790;49.520;8.504;2022-11-20T11:35:06;31.30;;;12.50;;
13435;SDS011;6790;49.520;8.504;2022-11-20T11:37:45;35.20;;;14.13;;
13435;SDS011;6790;49.520;8.504;2022-11-20T11:40:12;52.47;;;16.13;;
13435;SDS011;6790;49.520;8.504;2022-11-20T11:42:42;40.47;;;12.97;;
13435;SDS011;6790;49.520;8.504;2022-11-20T11:45:22;36.33;;;14.87;;
13435;SDS011;6790;49.520;8.504;2022-11-20T11:47:49;32.90;;;14.83;;
13435;SDS011;6790;49.520;8.504;2022-11-20T11:52:51;38.90;;;13.77;;
13435;SDS011;6790;49.520;8.504;2022-11-20T11:55:45;36.57;;;14.80;;
13435;SDS011;6790;49.520;8.504;2022-11-20T11:58:46;38.93;;;16.07;;
13435;SDS011;6790;49.520;8.504;2022-11-20T12:07:15;42.80;;;15.93;;
13435;SDS011;6790;49.520;8.504;2022-11-20T12:09:52;42.60;;;15.43;;
13435;SDS011;6790;49.520;8.504;2022-11-20T12:12:39;51.30;;;16.73;;
13435;SDS011;6790;49.520;8.504;2022-11-20T12:15:11;38.40;;;13.90;;
13435;SDS011;6790;49.520;8.504;2022-11-20T12:17:48;44.30;;;17.60;;
13435;SDS011;6790;49.520;8.504;2022-11-20T12:20:14;46.80;;;15.77;;
13435;SDS011;6790;49.520;8.504;2022-11-20T12:25:43;30.00;;;14.27;;
13435;SDS011;6790;49.520;8.504;2022-11-20T12:28:32;32.63;;;17.17;;
13435;SDS011;6790;49.520;8.504;2022-11-20T12:37:03;30.17;;;13.67;;
13435;SDS011;6790;49.520;8.504;2022-11-20T12:39:49;36.83;;;14.13;;
13435;SDS011;6790;49.520;8.504;2022-11-20T12:56:48;29.00;;;12.03;;
13435;SDS011;6790;49.520;8.504;2022-11-20T13:08:22;40.93;;;14.90;;
13435;SDS011;6790;49.520;8.504;2022-11-20T13:10:59;34.67;;;13.90;;
13435;SDS011;6790;49.520;8.504;2022-11-20T13:16:32;32.43;;;11.93;;
13435;SDS011;6790;49.520;8.504;2022-11-20T13:19:12;33.80;;;11.27;;
13435;SDS011;6790;49.520;8.504;2022-11-20T13:21:42;44.00;;;14.60;;
13435;SDS011;6790;49.520;8.504;2022-11-20T13:29:34;46.37;;;16.27;;
13435;SDS011;6790;49.520;8.504;2022-11-20T13:32:03;40.80;;;15.27;;
13435;SDS011;6790;49.520;8.504;2022-11-20T13:34:37;39.00;;;14.20;;
13435;SDS011;6790;49.520;8.504;2022-11-20T13:37:02;45.27;;;18.27;;
13435;SDS011;6790;49.520;8.504;2022-11-20T13:39:32;44.77;;;16.63;;
13435;SDS011;6790;49.520;8.504;2022-11-20T13:42:23;79.17;;;31.50;;
13435;SDS011;6790;49.520;8.504;2022-11-20T13:44:55;39.63;;;13.97;;
13435;SDS011;6790;49.520;8.504;2022-11-20T13:47:27;46.47;;;18.87;;
13435;SDS011;6790;49.520;8.504;2022-11-20T13:49:57;42.87;;;19.73;;
13435;SDS011;6790;49.520;8.504;2022-11-20T13:52:43;47.93;;;16.87;;
13435;SDS011;6790;49.520;8.504;2022-11-20T14:01:32;10.97;;;5.17;;
13435;SDS011;6790;49.520;8.504;2022-11-20T14:03:59;6.10;;;4.30;;
13435;SDS011;6790;49.520;8.504;2022-11-20T14:06:34;11.37;;;3.70;;
13435;SDS011;6790;49.520;8.504;2022-11-20T14:09:10;10.40;;;3.87;;
13435;SDS011;6790;49.520;8.504;2022-11-20T14:11:45;6.07;;;2.97;;
13435;SDS011;6790;49.520;8.504;2022-11-20T14:14:17;4.87;;;2.30;;
13435;SDS011;6790;49.520;8.504;2022-11-20T14:16:46;5.90;;;2.77;;
13435;SDS011;6790;49.520;8.504;2022-11-20T14:21:51;17.90;;;6.40;;
13435;SDS011;6790;49.520;8.504;2022-11-20T14:24:46;11.87;;;2.77;;
13435;SDS011;6790;49.520;8.504;2022-11-20T14:27:14;8.40;;;2.40;;
13435;SDS011;6790;49.520;8.504;2022-11-20T14:29:44;5.73;;;2.30;;
13435;SDS011;6790;49.520;8.504;2022-11-20T14:32:14;4.10;;;2.40;;
13435;SDS011;6790;49.520;8.504;2022-11-20T14:34:43;9.30;;;1.83;;
13435;SDS011;6790;49.520;8.504;2022-11-20T14:37:12;9.73;;;2.67;;
13435;SDS011;6790;49.520;8.504;2022-11-20T14:39:53;3.33;;;1.77;;
13435;SDS011;6790;49.520;8.504;2022-11-20T14:42:21;4.17;;;2.00;;
13435;SDS011;6790;49.520;8.504;2022-11-20T14:44:50;3.57;;;1.90;;
13435;SDS011;6790;49.520;8.504;2022-11-20T14:47:21;3.57;;;2.03;;
13435;SDS011;6790;49.520;8.504;2022-11-20T14:49:51;1.80;;;1.70;;
13435;SDS011;6790;49.520;8.504;2022-11-20T14:52:19;3.63;;;2.00;;
13435;SDS011;6790;49.520;8.504;2022-11-20T14:54:48;3.03;;;2.23;;
13435;SDS011;6790;49.520;8.504;2022-11-20T14:57:22;2.43;;;1.63;;
13435;SDS011;6790;49.520;8.504;2022-11-20T15:02:46;16.17;;;8.87;;
13435;SDS011;6790;49.520;8.504;2022-11-20T15:05:15;15.97;;;8.17;;
13435;SDS011;6790;49.520;8.504;2022-11-20T15:07:45;13.70;;;6.27;;
13435;SDS011;6790;49.520;8.504;2022-11-20T15:10:24;3.93;;;3.03;;
13435;SDS011;6790;49.520;8.504;2022-11-20T15:12:53;5.13;;;2.47;;
13435;SDS011;6790;49.520;8.504;2022-11-20T15:16:08;3.63;;;1.97;;
13435;SDS011;6790;49.520;8.504;2022-11-20T15:18:10;3.93;;;2.50;;
13435;SDS011;6790;49.520;8.504;2022-11-20T15:20:39;3.80;;;1.90;;
13435;SDS011;6790;49.520;8.504;2022-11-20T15:23:15;3.90;;;2.10;;
13435;SDS011;6790;49.520;8.504;2022-11-20T15:25:45;13.40;;;2.20;;
13435;SDS011;6790;49.520;8.504;2022-11-20T15:30:48;2.63;;;1.80;;
13435;SDS011;6790;49.520;8.504;2022-11-20T15:33:15;3.87;;;1.93;;
13435;SDS011;6790;49.520;8.504;2022-11-20T15:35:42;3.43;;;1.97;;
13435;SDS011;6790;49.520;8.504;2022-11-20T15:38:08;4.93;;;2.13;;
13435;SDS011;6790;49.520;8.504;2022-11-20T15:40:35;4.03;;;1.70;;
13435;SDS011;6790;49.520;8.504;2022-11-20T15:43:01;5.77;;;2.00;;
13435;SDS011;6790;49.520;8.504;2022-11-20T15:45:29;2.60;;;2.20;;
13435;SDS011;6790;49.520;8.504;2022-11-20T15:48:01;7.27;;;1.97;;
13435;SDS011;6790;49.520;8.504;2022-11-20T15:50:34;3.87;;;1.80;;
13435;SDS011;6790;49.520;8.504;2022-11-20T15:53:12;6.20;;;2.30;;
13435;SDS011;6790;49.520;8.504;2022-11-20T15:55:37;2.77;;;2.00;;
13435;SDS011;6790;49.520;8.504;2022-11-20T15:58:03;3.83;;;2.20;;
13435;SDS011;6790;49.520;8.504;2022-11-20T16:00:29;9.07;;;4.57;;
13435;SDS011;6790;49.520;8.504;2022-11-20T16:02:55;15.87;;;9.50;;
13435;SDS011;6790;49.520;8.504;2022-11-20T16:05:21;12.30;;;4.33;;
13435;SDS011;6790;49.520;8.504;2022-11-20T16:07:48;5.57;;;3.00;;
13435;SDS011;6790;49.520;8.504;2022-11-20T16:10:15;13.47;;;7.83;;
13435;SDS011;6790;49.520;8.504;2022-11-20T16:12:41;9.63;;;6.40;;
13435;SDS011;6790;49.520;8.504;2022-11-20T16:15:25;11.30;;;6.33;;
13435;SDS011;6790;49.520;8.504;2022-11-20T16:18:10;9.87;;;7.73;;
13435;SDS011;6790;49.520;8.504;2022-11-20T16:20:38;7.77;;;5.03;;
13435;SDS011;6790;49.520;8.504;2022-11-20T16:23:05;6.47;;;4.50;;
13435;SDS011;6790;49.520;8.504;2022-11-20T16:25:31;4.00;;;2.83;;
13435;SDS011;6790;49.520;8.504;2022-11-20T16:27:57;4.13;;;3.23;;
13435;SDS011;6790;49.520;8.504;2022-11-20T16:30:23;11.70;;;5.83;;
13435;SDS011;6790;49.520;8.504;2022-11-20T16:32:48;12.20;;;8.47;;
13435;SDS011;6790;49.520;8.504;2022-11-20T16:35:15;7.73;;;4.67;;